Time;durP1;ratioP1;P1;durP2;ratioP2;P2;SDS_P1;SDS_P2;PMS_P1;PMS_P2;Temp;Humidity;BMP_temperature;BMP_pressure;BME280_temperature;BME280_humidity;BME280_pressure;Samples;Min_cycle;Max_cycle;Signal;HPM_P1;HPM_P2
2023/04/18 00:00:30;;;;;;;0.57;0.57;;;;;;;8.68;44.33;100108.63;4938045;29;20125;-79
2023/04/18 00:02:57;;;;;;;0.50;0.50;;;;;;;8.68;44.35;100115.84;4954923;29;20094;-81
2023/04/18 00:05:28;;;;;;;0.50;0.50;;;;;;;8.64;44.74;100112.75;4938126;29;20047;-80
2023/04/18 00:07:57;;;;;;;0.50;0.50;;;;;;;8.63;44.52;100113.78;4954931;29;20506;-79
2023/04/18 00:10:24;;;;;;;0.50;0.50;;;;;;;8.62;45.14;100117.50;4918137;29;20052;-79
2023/04/18 00:12:51;;;;;;;0.40;0.40;;;;;;;8.66;45.25;100107.16;4935565;29;20135;-79
2023/04/18 00:15:21;;;;;;;0.50;0.50;;;;;;;8.63;45.29;100102.16;4935717;29;20120;-79
2023/04/18 00:17:48;;;;;;;0.50;0.50;;;;;;;8.62;45.53;100108.59;4935526;29;20064;-80
2023/04/18 00:20:15;;;;;;;0.50;0.50;;;;;;;8.57;45.60;100114.59;4919537;29;20050;-79
2023/04/18 00:22:43;;;;;;;0.50;0.50;;;;;;;8.56;45.78;100114.78;4936055;29;20043;-80
2023/04/18 00:25:11;;;;;;;0.50;0.50;;;;;;;8.51;45.97;100114.56;4935415;29;20047;-79
2023/04/18 00:27:38;;;;;;;0.50;0.50;;;;;;;8.49;46.11;100111.28;4935224;29;20051;-80
2023/04/18 00:30:06;;;;;;;0.50;0.50;;;;;;;8.46;46.53;100120.56;4935720;29;20596;-80
2023/04/18 00:32:37;;;;;;;0.50;0.50;;;;;;;8.42;46.67;100113.94;4918715;29;20103;-80
2023/04/18 00:35:05;;;;;;;0.60;0.60;;;;;;;8.40;46.77;100118.69;4944662;28;20134;-81
2023/04/18 00:37:32;;;;;;;0.50;0.50;;;;;;;8.39;47.14;100108.94;4937138;29;20078;-80
2023/04/18 00:40:00;;;;;;;0.50;0.50;;;;;;;8.41;47.25;100120.38;4954554;29;20506;-78
2023/04/18 00:42:29;;;;;;;0.50;0.50;;;;;;;8.43;47.41;100113.75;4965140;28;20111;-81
2023/04/18 00:44:57;;;;;;;0.50;0.50;;;;;;;8.42;46.86;100111.25;4957412;28;20054;-80
2023/04/18 00:47:25;;;;;;;0.60;0.60;;;;;;;8.45;47.10;100111.66;4941193;28;20457;-79
2023/04/18 00:49:53;;;;;;;0.50;0.50;;;;;;;8.41;47.22;100113.13;4957458;28;20076;-80
2023/04/18 00:52:20;;;;;;;0.50;0.50;;;;;;;8.47;47.20;100111.47;4966926;28;20146;-80
2023/04/18 00:54:47;;;;;;;0.50;0.50;;;;;;;8.47;47.43;100111.47;4954359;29;20055;-80
2023/04/18 00:57:15;;;;;;;0.50;0.50;;;;;;;8.45;47.18;100113.53;4936962;29;20102;-79
2023/04/18 00:59:45;;;;;;;0.50;0.50;;;;;;;8.43;47.33;100110.19;4921303;29;20051;-80
2023/04/18 01:02:12;;;;;;;0.50;0.50;;;;;;;8.38;47.67;100115.31;4954316;29;20539;-80
2023/04/18 01:04:42;;;;;;;0.50;0.50;;;;;;;8.29;47.87;100116.56;4952791;29;20059;-81
2023/04/18 01:07:09;;;;;;;0.50;0.50;;;;;;;8.21;48.29;100106.81;4889623;29;20070;-80
2023/04/18 01:09:40;;;;;;;0.50;0.50;;;;;;;8.16;48.88;100109.28;4946102;29;20063;-79
2023/04/18 01:12:07;;;;;;;0.50;0.50;;;;;;;8.09;48.87;100103.06;4917869;29;20058;-79
2023/04/18 01:14:35;;;;;;;0.50;0.50;;;;;;;8.06;49.23;100104.28;4934423;29;20058;-80
2023/04/18 01:17:02;;;;;;;0.50;0.50;;;;;;;8.04;49.45;100100.97;4934571;29;20044;-80
2023/04/18 01:19:32;;;;;;;0.60;0.60;;;;;;;8.06;49.40;100098.91;4934634;29;20044;-80
2023/04/18 01:21:59;;;;;;;0.50;0.50;;;;;;;8.11;49.01;100099.13;4901533;29;20479;-80
2023/04/18 01:24:30;;;;;;;0.50;0.50;;;;;;;8.16;48.86;100095.84;4917390;29;20062;-80
2023/04/18 01:26:58;;;;;;;0.50;0.50;;;;;;;8.14;49.12;100085.28;4917404;29;20057;-80
2023/04/18 01:29:25;;;;;;;0.50;0.50;;;;;;;8.20;49.05;100087.16;4918388;29;20052;-80
2023/04/18 01:31:56;;;;;;;0.50;0.50;;;;;;;8.25;49.08;100090.09;4913932;29;20147;-79
2023/04/18 01:34:25;;;;;;;0.50;0.50;;;;;;;8.29;48.78;100089.66;4917000;29;20083;-78
2023/04/18 01:36:52;;;;;;;0.50;0.50;;;;;;;8.34;48.48;100097.97;4916216;29;20102;-79
2023/04/18 01:39:19;;;;;;;0.50;0.50;;;;;;;8.34;48.68;100096.09;4945786;29;20075;-80
2023/04/18 01:41:46;;;;;;;0.50;0.50;;;;;;;8.41;48.47;100112.28;4935181;29;20463;-79
2023/04/18 01:44:16;;;;;;;0.50;0.50;;;;;;;8.44;48.45;100103.81;4935343;29;20102;-80
2023/04/18 01:46:45;;;;;;;0.60;0.60;;;;;;;8.48;48.13;100098.84;4934523;29;20445;-80
2023/04/18 01:49:12;;;;;;;0.50;0.50;;;;;;;8.50;48.19;100091.41;4922759;29;20115;-78
2023/04/18 01:51:41;;;;;;;0.50;0.50;;;;;;;8.56;48.04;100094.09;4931457;29;20055;-80
2023/04/18 01:54:09;;;;;;;0.50;0.50;;;;;;;8.60;48.36;100105.28;4915904;29;20507;-80
2023/04/18 01:56:36;;;;;;;0.43;0.43;;;;;;;8.53;48.73;100101.75;4899816;29;20106;-80
2023/04/18 01:59:03;;;;;;;0.60;0.60;;;;;;;8.50;48.80;100096.78;4915601;29;20050;-80
2023/04/18 02:01:32;;;;;;;0.50;0.50;;;;;;;8.49;48.83;100103.19;4915762;29;20047;-80
2023/04/18 02:03:59;;;;;;;0.50;0.50;;;;;;;8.49;48.92;100098.66;4951090;29;20506;-79
2023/04/18 02:06:26;;;;;;;0.50;0.50;;;;;;;8.46;49.10;100094.50;4935761;29;20075;-79
2023/04/18 02:08:54;;;;;;;0.50;0.50;;;;;;;8.38;49.67;100085.75;4932805;29;20066;-78
2023/04/18 02:11:24;;;;;;;0.50;0.50;;;;;;;8.20;50.01;100089.88;4933569;29;20130;-79
2023/04/18 02:13:51;;;;;;;0.50;0.50;;;;;;;8.05;50.38;100089.16;4900628;29;20066;-80
2023/04/18 02:16:18;;;;;;;0.50;0.50;;;;;;;7.99;50.27;100090.81;4916586;29;20474;-80
2023/04/18 02:18:51;;;;;;;0.50;0.50;;;;;;;8.02;50.02;100095.78;4916165;29;20162;-79
2023/04/18 02:21:18;;;;;;;0.60;0.60;;;;;;;8.00;49.73;100092.47;4916562;29;20054;-80
2023/04/18 02:23:48;;;;;;;0.50;0.50;;;;;;;7.99;49.71;100098.03;4916652;29;20084;-80
2023/04/18 02:26:16;;;;;;;0.60;0.60;;;;;;;7.95;50.08;100092.25;4916427;29;20422;-80
2023/04/18 02:28:43;;;;;;;0.60;0.60;;;;;;;7.96;50.43;100085.00;4900710;29;20048;-79
2023/04/18 02:31:13;;;;;;;0.60;0.60;;;;;;;7.93;50.42;100093.50;4933239;29;20048;-79
2023/04/18 02:33:42;;;;;;;0.57;0.57;;;;;;;7.88;50.74;100090.56;4916619;29;20052;-79
2023/04/18 02:36:11;;;;;;;0.50;0.50;;;;;;;7.79;51.40;100093.41;4968990;28;20061;-78
2023/04/18 02:38:38;;;;;;;0.50;0.50;;;;;;;7.67;51.84;100086.09;4971499;28;20078;-79
2023/04/18 02:41:05;;;;;;;0.60;0.60;;;;;;;7.66;52.33;100095.22;4954628;28;20097;-79
2023/04/18 02:43:32;;;;;;;0.60;0.60;;;;;;;7.64;52.73;100097.25;4971671;28;20077;-79
2023/04/18 02:46:01;;;;;;;0.60;0.60;;;;;;;7.61;52.93;100093.13;4937767;29;20079;-78
2023/04/18 02:48:28;;;;;;;0.50;0.50;;;;;;;7.58;53.02;100090.84;4952368;29;20054;-78
2023/04/18 02:51:04;;;;;;;0.50;0.50;;;;;;;7.62;53.10;100086.69;4919461;29;20043;-79
2023/04/18 02:53:34;;;;;;;0.60;0.60;;;;;;;7.58;53.34;100090.84;4920726;29;20059;-79
2023/04/18 02:56:01;;;;;;;0.70;0.70;;;;;;;7.52;53.62;100088.91;4935180;29;20058;-80
2023/04/18 02:58:51;;;;;;;0.65;0.65;;;;;;;7.49;53.65;100086.63;4934334;29;20530;-79
2023/04/18 03:01:51;;;;;;;0.60;0.60;;;;;;;7.45;53.74;100088.91;4934833;29;20051;-79
2023/04/18 03:04:21;;;;;;;0.60;0.60;;;;;;;7.41;53.95;100076.88;4952048;29;20130;-80
2023/04/18 03:06:56;;;;;;;0.60;0.60;;;;;;;7.43;53.84;100084.75;4934661;29;20502;-79
2023/04/18 03:09:25;;;;;;;0.68;0.68;;;;;;;7.47;53.94;100088.69;4915910;29;20071;-79
2023/04/18 03:11:58;;;;;;;0.70;0.70;;;;;;;7.50;53.66;100088.31;4901457;29;20067;-79
2023/04/18 03:14:27;;;;;;;0.60;0.60;;;;;;;7.46;53.89;100093.22;4916018;29;20043;-78
2023/04/18 03:16:55;;;;;;;0.60;0.60;;;;;;;7.47;54.41;100083.31;4934043;29;20083;-79
2023/04/18 03:19:27;;;;;;;0.60;0.60;;;;;;;7.52;54.36;100084.41;4915722;29;20047;-79
2023/04/18 03:21:57;;;;;;;0.70;0.70;;;;;;;7.60;54.25;100081.53;4899887;29;20051;-79
2023/04/18 03:24:24;;;;;;;0.55;0.55;;;;;;;7.71;54.12;100088.22;4932801;29;20051;-79
2023/04/18 03:26:54;;;;;;;0.70;0.70;;;;;;;7.86;53.80;100084.56;4915682;29;20090;-80
2023/04/18 03:29:24;;;;;;;0.60;0.60;;;;;;;7.93;53.75;100086.25;4915764;29;20044;-79
2023/04/18 03:31:51;;;;;;;0.60;0.60;;;;;;;7.98;54.06;100091.03;4942743;28;20059;-78
2023/04/18 03:34:19;;;;;;;0.60;0.60;;;;;;;8.03;54.09;100085.88;4950092;29;20073;-79
2023/04/18 03:36:47;;;;;;;0.50;0.50;;;;;;;8.08;54.28;100083.41;4934629;29;20059;-79
2023/04/18 03:39:15;;;;;;;0.57;0.57;;;;;;;8.15;54.32;100081.56;4919329;29;20454;-79
2023/04/18 03:41:44;;;;;;;0.60;0.60;;;;;;;8.18;54.09;100083.84;4934531;29;20063;-80
2023/04/18 03:44:12;;;;;;;0.60;0.60;;;;;;;8.18;53.88;100081.16;4888488;28;20067;-78
2023/04/18 03:46:41;;;;;;;0.60;0.60;;;;;;;8.36;53.68;100085.97;4937477;29;20043;-79
2023/04/18 03:49:09;;;;;;;0.50;0.50;;;;;;;8.42;53.91;100087.03;4922313;29;20082;-80
2023/04/18 03:51:46;;;;;;;0.57;0.57;;;;;;;8.47;53.43;100089.94;4937616;29;20079;-78
2023/04/18 03:54:14;;;;;;;0.50;0.50;;;;;;;8.49;53.29;100087.88;4955136;29;20111;-79
2023/04/18 03:56:41;;;;;;;0.60;0.60;;;;;;;8.50;53.23;100088.69;4954959;29;20047;-80
2023/04/18 03:59:12;;;;;;;0.60;0.60;;;;;;;8.42;53.78;100087.03;4937803;29;20057;-80
2023/04/18 04:01:47;;;;;;;0.50;0.50;;;;;;;8.36;53.88;100085.13;4937855;29;20083;-78
2023/04/18 04:07:00;;;;;;;0.60;0.60;;;;;;;8.37;54.05;100076.84;4937491;29;20054;-80
2023/04/18 04:09:30;;;;;;;0.60;0.60;;;;;;;8.44;54.11;100088.50;4934107;29;20051;-80
2023/04/18 04:11:59;;;;;;;0.60;0.60;;;;;;;8.49;54.20;100090.56;4935428;29;20066;-80
2023/04/18 04:14:26;;;;;;;0.60;0.60;;;;;;;8.52;53.86;100084.78;4918519;29;20044;-80
2023/04/18 04:16:57;;;;;;;0.60;0.60;;;;;;;8.66;53.53;100086.47;4902083;29;20567;-79
2023/04/18 04:19:24;;;;;;;0.60;0.60;;;;;;;8.66;53.59;100081.06;4918451;29;20059;-80
2023/04/18 04:22:03;;;;;;;0.60;0.60;;;;;;;8.70;53.25;100091.41;4933713;29;20052;-81
2023/04/18 04:24:32;;;;;;;0.60;0.60;;;;;;;8.77;53.49;100092.25;4917807;29;20105;-80
2023/04/18 04:27:02;;;;;;;0.60;0.60;;;;;;;8.82;53.16;100087.09;4911922;28;20074;-79
2023/04/18 04:29:30;;;;;;;0.60;0.60;;;;;;;8.92;52.97;100095.56;4935596;29;20508;-79
2023/04/18 04:31:58;;;;;;;0.60;0.60;;;;;;;8.95;53.18;100086.25;4930136;29;20047;-79
2023/04/18 04:34:34;;;;;;;0.60;0.60;;;;;;;8.99;53.27;100091.03;4929408;29;20059;-79
2023/04/18 04:37:08;;;;;;;0.60;0.60;;;;;;;9.07;53.16;100088.13;4929384;29;20135;-79
2023/04/18 04:39:45;;;;;;;0.60;0.60;;;;;;;9.20;53.25;100097.22;4915243;29;20132;-81
2023/04/18 04:42:35;;;;;;;0.57;0.57;;;;;;;9.21;53.21;100096.19;4943607;29;20062;-83
2023/04/18 04:45:11;;;;;;;0.60;0.60;;;;;;;9.23;52.95;100086.03;4936200;29;20499;-82
2023/04/18 04:47:38;;;;;;;0.50;0.50;;;;;;;9.30;53.02;100092.25;4919657;29;20053;-82
2023/04/18 04:50:12;;;;;;;0.60;0.60;;;;;;;9.39;52.51;100080.19;4924480;29;20043;-83
2023/04/18 04:52:41;;;;;;;0.50;0.50;;;;;;;9.57;52.70;100094.88;4934449;29;20063;-79
2023/04/18 04:55:09;;;;;;;0.70;0.70;;;;;;;9.67;52.17;100097.94;4935022;29;20070;-79
2023/04/18 04:57:40;;;;;;;0.60;0.60;;;;;;;9.67;52.30;100092.56;4923469;29;20055;-78
2023/04/18 05:00:35;;;;;;;0.60;0.60;;;;;;;9.68;52.63;100086.13;4933574;29;20051;-83
2023/04/18 05:03:11;;;;;;;0.60;0.60;;;;;;;9.64;52.51;100093.81;4919287;29;20052;-84
2023/04/18 05:05:39;;;;;;;0.60;0.60;;;;;;;9.70;52.58;100098.38;4929901;29;20071;-80
2023/04/18 05:08:06;;;;;;;0.60;0.60;;;;;;;9.57;52.85;100084.09;4944408;28;20051;-82
2023/04/18 05:10:35;;;;;;;0.60;0.60;;;;;;;9.72;52.89;100104.38;4943907;29;20073;-81
2023/04/18 05:13:04;;;;;;;0.55;0.55;;;;;;;9.72;52.86;100090.06;4936666;29;20482;-81
2023/04/18 05:15:31;;;;;;;0.55;0.55;;;;;;;9.88;52.62;100096.88;4930834;29;20067;-83
2023/04/18 05:18:01;;;;;;;0.50;0.50;;;;;;;9.96;52.86;100096.63;4930726;29;20051;-83
2023/04/18 05:20:30;;;;;;;0.50;0.50;;;;;;;9.96;52.95;100108.22;4953358;29;20085;-83
2023/04/18 05:22:57;;;;;;;0.50;0.50;;;;;;;10.04;52.79;100103.63;4589804;28;10000254;-82
2023/04/18 05:25:25;;;;;;;0.60;0.60;;;;;;;10.04;52.99;100099.06;4931100;29;20075;-82
2023/04/18 05:27:52;;;;;;;0.50;0.50;;;;;;;10.03;52.92;100102.81;4930407;29;20079;-83
2023/04/18 05:30:19;;;;;;;0.50;0.50;;;;;;;10.08;52.98;100099.47;4923300;28;20047;-84
2023/04/18 05:32:56;;;;;;;0.60;0.60;;;;;;;10.13;52.85;100103.19;4950723;28;20154;-81
2023/04/18 05:35:24;;;;;;;0.50;0.50;;;;;;;10.13;52.66;100110.44;4946867;28;20051;-82
2023/04/18 05:37:52;;;;;;;0.45;0.45;;;;;;;10.05;52.77;100099.88;4914024;29;20111;-81
2023/04/18 05:40:19;;;;;;;0.50;0.50;;;;;;;10.13;52.82;100113.16;4914798;29;20080;-80
2023/04/18 05:42:47;;;;;;;0.60;0.60;;;;;;;10.17;52.73;100100.88;4898012;29;20503;-80
2023/04/18 05:45:14;;;;;;;0.60;0.60;;;;;;;10.20;52.42;100106.69;4922380;29;20091;-81
2023/04/18 05:48:12;;;;;;;0.50;0.50;;;;;;;10.34;52.21;100104.75;4913255;29;20079;-81
2023/04/18 05:50:40;;;;;;;0.60;0.60;;;;;;;10.23;51.99;100094.63;4930326;29;20107;-81
2023/04/18 05:53:07;;;;;;;0.50;0.50;;;;;;;10.36;51.93;100099.97;4927154;29;20055;-81
2023/04/18 05:55:34;;;;;;;0.50;0.50;;;;;;;10.37;52.06;100108.91;4924866;29;20125;-82
2023/04/18 05:58:02;;;;;;;0.60;0.60;;;;;;;10.41;51.98;100105.56;4927213;29;20056;-82
2023/04/18 06:00:30;;;;;;;0.50;0.50;;;;;;;10.44;51.91;100100.78;4918198;29;20062;-81
2023/04/18 06:02:58;;;;;;;0.50;0.50;;;;;;;10.47;51.92;100108.44;4940498;28;20394;-80
2023/04/18 06:05:27;;;;;;;0.60;0.60;;;;;;;10.54;52.05;100110.03;4959465;28;20101;-81
2023/04/18 06:07:57;;;;;;;0.60;0.60;;;;;;;10.65;51.85;100100.41;4896655;29;20067;-82
2023/04/18 06:10:24;;;;;;;0.60;0.60;;;;;;;10.95;51.25;100113.28;4942835;29;20098;-82
2023/04/18 06:12:52;;;;;;;0.60;0.60;;;;;;;11.27;50.79;100109.47;4948028;29;20047;-84
2023/04/18 06:15:19;;;;;;;0.60;0.60;;;;;;;11.61;49.90;100109.97;4916418;29;20055;-82
2023/04/18 06:17:46;;;;;;;0.60;0.60;;;;;;;11.97;49.09;100113.75;4949249;29;20142;-83
2023/04/18 06:20:13;;;;;;;0.63;0.63;;;;;;;12.35;47.97;100105.34;4916826;29;20058;-80
2023/04/18 06:22:41;;;;;;;0.63;0.63;;;;;;;12.67;47.31;100096.16;4911782;29;20114;-82
2023/04/18 06:25:09;;;;;;;0.50;0.50;;;;;;;12.88;46.39;100098.31;4937566;29;20051;-83
2023/04/18 06:27:36;;;;;;;0.60;0.60;;;;;;;13.01;46.08;100098.13;4958869;28;20054;-82
2023/04/18 06:30:07;;;;;;;0.60;0.60;;;;;;;13.11;45.61;100108.34;4934035;29;20043;-82
2023/04/18 06:32:34;;;;;;;0.50;0.50;;;;;;;13.26;45.29;100105.19;4942190;29;20051;-84
2023/04/18 06:35:02;;;;;;;0.60;0.60;;;;;;;13.21;44.96;100102.34;4914298;29;20115;-84
2023/04/18 06:37:31;;;;;;;0.50;0.50;;;;;;;13.33;44.24;100096.97;4935198;29;20079;-82
2023/04/18 06:39:58;;;;;;;0.60;0.60;;;;;;;13.59;43.99;100101.09;4936123;29;20059;-82
2023/04/18 06:42:25;;;;;;;0.60;0.60;;;;;;;13.76;43.54;100101.19;4933335;29;20107;-81
2023/04/18 06:44:53;;;;;;;0.50;0.50;;;;;;;13.88;42.50;100097.38;4916234;29;20418;-84
2023/04/18 06:47:21;;;;;;;0.50;0.50;;;;;;;13.72;42.07;100091.88;4933821;29;20153;-83
2023/04/18 06:49:48;;;;;;;0.50;0.50;;;;;;;13.84;41.38;100095.38;4899982;29;20051;-83
2023/04/18 06:52:16;;;;;;;0.50;0.50;;;;;;;14.01;39.88;100090.03;4933146;29;20073;-84
2023/04/18 06:54:47;;;;;;;0.50;0.50;;;;;;;14.12;39.56;100091.06;4932787;29;20075;-81
2023/04/18 06:57:14;;;;;;;0.50;0.50;;;;;;;14.23;38.91;100088.31;4933463;29;20055;-83
2023/04/18 06:59:41;;;;;;;0.40;0.40;;;;;;;14.13;37.11;100090.84;4916014;29;20099;-82
2023/04/18 07:02:10;;;;;;;0.50;0.50;;;;;;;14.00;37.13;100088.38;4933103;29;20578;-83
2023/04/18 07:04:37;;;;;;;0.57;0.57;;;;;;;13.95;36.78;100088.28;4916292;29;20118;-84
2023/04/18 07:07:04;;;;;;;0.50;0.50;;;;;;;13.72;37.57;100092.69;4933415;29;20463;-82
2023/04/18 07:09:31;;;;;;;0.50;0.50;;;;;;;13.57;38.33;100092.34;4933307;29;20056;-84
2023/04/18 07:11:59;;;;;;;0.52;0.52;;;;;;;13.73;37.74;100093.53;4915874;29;20052;-85
2023/04/18 07:14:27;;;;;;;0.60;0.60;;;;;;;14.01;37.56;100090.03;4916147;29;20131;-84
2023/04/18 07:16:56;;;;;;;0.50;0.50;;;;;;;14.18;37.56;100093.66;4901042;29;20103;-83
2023/04/18 07:19:23;;;;;;;0.60;0.60;;;;;;;14.51;36.55;100102.97;4916972;29;20095;-84
2023/04/18 07:21:55;;;;;;;0.50;0.50;;;;;;;14.39;36.73;100113.03;4937323;29;20055;-85
2023/04/18 07:24:23;;;;;;;0.50;0.50;;;;;;;14.34;36.78;100099.38;4948540;28;20137;-84
2023/04/18 07:26:51;;;;;;;0.50;0.50;;;;;;;14.45;36.65;100091.16;4961876;28;20077;-84
2023/04/18 07:29:21;;;;;;;0.50;0.50;;;;;;;14.08;36.51;100086.13;4944019;29;20562;-82
2023/04/18 07:31:48;;;;;;;0.60;0.60;;;;;;;14.11;36.86;100090.25;4963384;29;20063;-84
2023/04/18 07:34:20;;;;;;;0.60;0.60;;;;;;;14.35;36.39;100095.56;4938615;29;20079;-82
2023/04/18 07:36:47;;;;;;;0.60;0.60;;;;;;;14.40;36.21;100087.53;4955206;29;20444;-83
2023/04/18 07:39:14;;;;;;;0.60;0.60;;;;;;;14.77;35.92;100092.56;4938433;29;20061;-83
2023/04/18 07:41:42;;;;;;;0.68;0.68;;;;;;;15.09;35.28;100092.81;4955565;29;20047;-82
2023/04/18 07:44:09;;;;;;;0.68;0.68;;;;;;;15.49;35.26;100080.91;4938278;29;20102;-83
2023/04/18 07:46:39;;;;;;;0.60;0.60;;;;;;;16.01;34.65;100081.34;4955247;29;20430;-84
2023/04/18 07:49:07;;;;;;;0.50;0.50;;;;;;;16.05;33.77;100087.09;4955942;29;20066;-83
2023/04/18 07:51:34;;;;;;;0.50;0.50;;;;;;;15.77;34.31;100083.50;4955775;29;20049;-83
2023/04/18 07:54:02;;;;;;;0.50;0.50;;;;;;;15.89;34.40;100082.56;4955669;29;20121;-82
2023/04/18 07:56:29;;;;;;;0.50;0.50;;;;;;;15.98;34.03;100095.47;4937835;29;20054;-83
2023/04/18 07:58:56;;;;;;;0.50;0.50;;;;;;;15.92;34.10;100095.66;4956099;29;20063;-85
2023/04/18 08:01:25;;;;;;;0.50;0.50;;;;;;;15.81;34.15;100084.63;4955370;29;20118;-82
2023/04/18 08:03:53;;;;;;;0.50;0.50;;;;;;;15.85;33.83;100089.56;4955531;29;20135;-84
2023/04/18 08:06:21;;;;;;;0.40;0.40;;;;;;;15.65;34.44;100077.34;4940325;29;20141;-84
2023/04/18 08:08:48;;;;;;;0.50;0.50;;;;;;;15.72;34.37;100071.72;4941183;29;20043;-84
2023/04/18 08:11:18;;;;;;;0.40;0.40;;;;;;;15.84;34.84;100074.31;4958668;29;20204;-84
2023/04/18 08:13:45;;;;;;;0.40;0.40;;;;;;;15.99;34.22;100075.31;4959142;29;20086;-82
2023/04/18 08:16:12;;;;;;;0.40;0.40;;;;;;;16.09;33.93;100073.81;4955267;29;20077;-81
2023/04/18 08:18:43;;;;;;;0.50;0.50;;;;;;;16.88;32.98;100068.63;4954493;29;20094;-82
2023/04/18 08:21:10;;;;;;;0.50;0.50;;;;;;;17.56;31.99;100062.53;4974758;28;20062;-82
2023/04/18 08:23:40;;;;;;;0.50;0.50;;;;;;;17.59;32.05;100056.53;4920022;29;20100;-82
2023/04/18 08:26:07;;;;;;;0.60;0.60;;;;;;;18.00;31.45;100062.19;4918617;29;20054;-82
2023/04/18 08:28:34;;;;;;;0.50;0.50;;;;;;;18.30;30.57;100061.47;4935148;29;20052;-81
2023/04/18 08:31:01;;;;;;;0.60;0.60;;;;;;;18.52;30.38;100063.97;4935254;29;20106;-80
2023/04/18 08:33:31;;;;;;;0.50;0.50;;;;;;;18.69;30.00;100060.19;4935345;29;20536;-81
2023/04/18 08:35:58;;;;;;;0.50;0.50;;;;;;;18.06;30.77;100058.41;4969374;28;20058;-80
2023/04/18 08:38:25;;;;;;;0.40;0.40;;;;;;;17.61;31.18;100054.38;4965092;28;20137;-82
2023/04/18 08:40:53;;;;;;;0.40;0.40;;;;;;;17.55;31.84;100061.72;4914217;29;20085;-83
2023/04/18 08:43:20;;;;;;;0.40;0.40;;;;;;;17.54;32.14;100056.50;4917961;29;20055;-82
2023/04/18 08:45:47;;;;;;;0.40;0.40;;;;;;;17.46;31.81;100063.28;4945037;29;20087;-82
2023/04/18 08:48:17;;;;;;;0.60;0.60;;;;;;;18.16;30.82;100055.69;4938137;28;20059;-83
2023/04/18 08:50:46;;;;;;;0.40;0.40;;;;;;;18.35;30.70;100047.00;4960560;28;20047;-79
2023/04/18 08:53:16;;;;;;;0.50;0.50;;;;;;;18.94;29.40;100054.72;4932445;29;20597;-80
2023/04/18 08:55:49;;;;;;;0.40;0.40;;;;;;;18.91;29.76;100049.78;4917795;29;20062;-82
2023/04/18 08:58:21;;;;;;;0.40;0.40;;;;;;;18.45;29.92;100041.53;4924738;28;20086;-81
2023/04/18 09:00:56;;;;;;;0.40;0.40;;;;;;;18.17;30.67;100046.41;4935378;29;20538;-82
2023/04/18 09:03:40;;;;;;;0.30;0.30;;;;;;;17.58;31.40;100048.63;4936986;29;20111;-82
2023/04/18 09:06:17;;;;;;;0.30;0.30;;;;;;;16.76;32.37;100043.44;4919037;29;20056;-81
2023/04/18 09:08:57;;;;;;;0.40;0.40;;;;;;;16.14;33.54;100060.25;4935328;29;20074;-80
2023/04/18 09:11:30;;;;;;;0.30;0.30;;;;;;;15.81;34.31;100048.44;4936630;29;20421;-81
2023/04/18 09:13:58;;;;;;;0.40;0.40;;;;;;;15.56;34.72;100055.16;4953482;29;20069;-81
2023/04/18 09:16:26;;;;;;;0.30;0.30;;;;;;;15.42;34.99;100053.91;4936536;29;20142;-82
2023/04/18 09:19:09;;;;;;;0.30;0.30;;;;;;;15.29;35.29;100048.78;4941011;29;20051;-83
2023/04/18 09:21:39;;;;;;;0.40;0.40;;;;;;;15.17;35.22;100049.72;4957197;29;20055;-82
2023/04/18 09:24:28;;;;;;;0.40;0.40;;;;;;;15.10;35.34;100048.25;4931171;28;20558;-83
2023/04/18 09:26:57;;;;;;;0.40;0.40;;;;;;;14.84;35.67;100056.00;4920325;29;20076;-83
2023/04/18 09:29:45;;;;;;;0.40;0.40;;;;;;;14.83;35.66;100053.53;4934789;29;20074;-81
2023/04/18 09:32:28;;;;;;;0.40;0.40;;;;;;;14.57;35.96;100053.09;4598321;28;10000535;-80
2023/04/18 09:34:57;;;;;;;0.40;0.40;;;;;;;14.46;36.43;100060.22;4943117;28;20067;-82
2023/04/18 09:37:25;;;;;;;0.40;0.40;;;;;;;14.51;36.19;100062.22;4923169;29;20114;-82
2023/04/18 09:39:57;;;;;;;0.40;0.40;;;;;;;14.48;36.46;100059.97;4934013;29;20464;-83
2023/04/18 09:42:24;;;;;;;0.30;0.30;;;;;;;14.46;36.15;100053.97;4914033;29;20471;-81
2023/04/18 09:45:07;;;;;;;0.40;0.40;;;;;;;14.52;36.28;100059.25;4943615;28;20078;-81
2023/04/18 09:47:36;;;;;;;0.40;0.40;;;;;;;14.50;35.83;100055.94;4948825;28;20534;-81
2023/04/18 09:50:07;;;;;;;0.32;0.32;;;;;;;14.41;36.50;100053.88;4929420;29;20110;-81
2023/04/18 09:52:42;;;;;;;0.40;0.40;;;;;;;14.30;36.13;100055.56;4926310;29;20051;-80
2023/04/18 09:55:12;;;;;;;0.40;0.40;;;;;;;14.00;36.33;100053.94;4938511;29;20463;-82
2023/04/18 09:57:42;;;;;;;0.30;0.30;;;;;;;13.85;36.37;100057.16;4940177;29;20051;-82
2023/04/18 10:00:16;;;;;;;0.40;0.40;;;;;;;13.80;36.78;100056.22;4929522;29;20126;-81
2023/04/18 10:02:53;;;;;;;0.40;0.40;;;;;;;13.75;37.22;100056.97;4927821;29;20070;-82
2023/04/18 10:05:24;;;;;;;0.40;0.40;;;;;;;13.88;36.68;100056.69;4922031;29;20592;-81
2023/04/18 10:07:53;;;;;;;0.40;0.40;;;;;;;13.93;36.18;100055.16;4931264;29;20507;-81
2023/04/18 10:10:24;;;;;;;0.40;0.40;;;;;;;13.92;36.24;100061.63;4923838;28;20063;-81
2023/04/18 10:12:53;;;;;;;0.47;0.47;;;;;;;13.92;36.60;100058.91;4926369;29;20063;-81
2023/04/18 10:15:25;;;;;;;0.40;0.40;;;;;;;13.92;36.37;100058.91;4925642;28;20098;-81
2023/04/18 10:17:57;;;;;;;0.40;0.40;;;;;;;14.03;36.01;100061.59;4951140;28;20051;-81
2023/04/18 10:20:33;;;;;;;0.40;0.40;;;;;;;14.03;36.16;100060.78;4948891;28;20201;-82
2023/04/18 10:23:35;;;;;;;0.30;0.30;;;;;;;14.10;36.35;100056.00;4938178;29;20167;-81
2023/04/18 10:26:09;;;;;;;0.40;0.40;;;;;;;14.11;36.62;100052.25;4920644;29;20069;-85
2023/04/18 10:28:55;;;;;;;0.40;0.40;;;;;;;14.12;36.98;100062.03;4919636;29;20051;-83
2023/04/18 10:31:27;;;;;;;0.40;0.40;;;;;;;14.16;36.96;100065.91;4952267;29;20105;-83
2023/04/18 10:33:59;;;;;;;0.40;0.40;;;;;;;14.20;37.22;100067.06;4950621;28;20051;-82
2023/04/18 10:36:31;;;;;;;0.40;0.40;;;;;;;14.35;36.95;100065.72;4935415;29;20593;-85
2023/04/18 10:39:19;;;;;;;0.40;0.40;;;;;;;14.43;36.62;100057.16;4951802;29;20510;-82
2023/04/18 10:41:48;;;;;;;0.40;0.40;;;;;;;14.33;37.74;100063.25;4927673;29;20052;-84
2023/04/18 10:44:22;;;;;;;0.40;0.40;;;;;;;14.46;37.71;100064.84;4934135;29;20110;-84
2023/04/18 10:46:50;;;;;;;0.40;0.40;;;;;;;14.46;37.64;100067.56;4932941;29;20063;-84
2023/04/18 10:49:25;;;;;;;0.40;0.40;;;;;;;14.38;37.74;100063.34;4939562;29;20513;-81
2023/04/18 10:51:59;;;;;;;0.40;0.40;;;;;;;14.41;38.03;100062.84;4951512;29;20050;-83
2023/04/18 10:54:37;;;;;;;0.40;0.40;;;;;;;14.77;37.54;100062.69;4950562;28;20150;-84
2023/04/18 10:57:07;;;;;;;0.40;0.40;;;;;;;14.84;37.04;100063.34;4935420;29;20050;-84
2023/04/18 10:59:40;;;;;;;0.40;0.40;;;;;;;14.86;36.93;100064.75;4956245;29;20047;-84
2023/04/18 11:02:25;;;;;;;0.40;0.40;;;;;;;15.00;37.04;100064.41;4955878;29;20150;-84
2023/04/18 11:04:52;;;;;;;;;;;;;;;15.05;36.77;100056.34;4956708;29;20051;-83
2023/04/18 11:07:37;;;;;;;0.50;0.50;;;;;;;15.04;36.85;100057.38;4937060;29;19933;-85
2023/04/18 11:10:06;;;;;;;0.40;0.40;;;;;;;15.04;36.53;100060.09;4946357;29;20051;-84
2023/04/18 11:12:36;;;;;;;0.40;0.40;;;;;;;14.92;36.81;100062.94;4963594;28;20047;-84
2023/04/18 11:15:10;;;;;;;0.47;0.47;;;;;;;14.86;36.99;100061.19;4915118;29;20130;-84
2023/04/18 11:17:40;;;;;;;0.40;0.40;;;;;;;14.89;37.01;100061.53;4937132;29;20059;-86
2023/04/18 11:20:13;;;;;;;0.40;0.40;;;;;;;14.90;36.68;100049.56;4954668;29;20054;-84
2023/04/18 11:22:59;;;;;;;0.40;0.40;;;;;;;14.84;37.07;100055.19;4955353;29;20466;-86
2023/04/18 11:25:27;;;;;;;0.40;0.40;;;;;;;14.84;37.36;100060.63;4939594;29;20158;-84
2023/04/18 11:27:56;;;;;;;0.40;0.40;;;;;;;14.75;36.94;100041.19;4938750;29;20487;-85
2023/04/18 11:30:24;;;;;;;0.40;0.40;;;;;;;14.85;36.79;100054.13;4938828;29;20047;-83
2023/04/18 11:32:54;;;;;;;0.40;0.40;;;;;;;14.84;36.88;100060.63;4955718;29;20073;-84
2023/04/18 11:35:22;;;;;;;0.40;0.40;;;;;;;14.93;36.32;100053.69;4956968;28;20058;-84
2023/04/18 11:37:50;;;;;;;0.50;0.50;;;;;;;15.00;36.12;100054.34;4956565;28;20130;-85
2023/04/18 11:40:17;;;;;;;0.40;0.40;;;;;;;15.12;36.03;100051.56;4950360;29;20675;-84
2023/04/18 11:42:46;;;;;;;0.40;0.40;;;;;;;15.13;36.09;100045.84;4962490;29;20305;-85
2023/04/18 11:45:14;;;;;;;0.40;0.40;;;;;;;15.16;35.89;100058.13;4951796;29;20098;-82